sensor_id;sensor_type;location;lat;lon;timestamp;pressure;altitude;pressure_sealevel;temperature;humidity
79362;BME280;68830;47.566;19.012;2023-09-19T00:01:13;99441.38;;;22.82;79.49
79362;BME280;68830;47.566;19.012;2023-09-19T00:04:16;99436.88;;;22.88;79.45
79362;BME280;68830;47.566;19.012;2023-09-19T00:07:21;99437.94;;;22.87;79.36
79362;BME280;68830;47.566;19.012;2023-09-19T00:10:23;99439.94;;;22.80;80.16
79362;BME280;68830;47.566;19.012;2023-09-19T00:13:30;99438.53;;;22.77;80.25
79362;BME280;68830;47.566;19.012;2023-09-19T00:16:33;99436.06;;;22.76;80.91
79362;BME280;68830;47.566;19.012;2023-09-19T00:19:35;99428.56;;;22.78;80.75
79362;BME280;68830;47.566;19.012;2023-09-19T00:22:39;99434.53;;;22.80;80.57
79362;BME280;68830;47.566;19.012;2023-09-19T00:25:41;99425.59;;;22.79;80.54
79362;BME280;68830;47.566;19.012;2023-09-19T00:28:45;99430.59;;;22.71;81.56
79362;BME280;68830;47.566;19.012;2023-09-19T00:31:47;99430.25;;;22.67;81.65
79362;BME280;68830;47.566;19.012;2023-09-19T00:34:50;99430.25;;;22.67;82.00
79362;BME280;68830;47.566;19.012;2023-09-19T00:37:53;99430.59;;;22.71;81.81
79362;BME280;68830;47.566;19.012;2023-09-19T00:40:55;99428.22;;;22.74;81.91
79362;BME280;68830;47.566;19.012;2023-09-19T00:44:03;99429.53;;;22.72;82.11
79362;BME280;68830;47.566;19.012;2023-09-19T00:47:05;99423.66;;;22.75;82.32
79362;BME280;68830;47.566;19.012;2023-09-19T00:50:09;99420.94;;;22.75;82.58
79362;BME280;68830;47.566;19.012;2023-09-19T00:53:14;99420.44;;;22.78;82.69
79362;BME280;68830;47.566;19.012;2023-09-19T00:56:16;99418.25;;;22.75;83.17
79362;BME280;68830;47.566;19.012;2023-09-19T00:59:21;99416.13;;;22.77;83.10
79362;BME280;68830;47.566;19.012;2023-09-19T01:02:24;99415.28;;;22.76;83.58
79362;BME280;68830;47.566;19.012;2023-09-19T01:05:27;99419.31;;;22.74;84.13
79362;BME280;68830;47.566;19.012;2023-09-19T01:08:29;99414.97;;;22.73;84.10
79362;BME280;68830;47.566;19.012;2023-09-19T01:11:35;99420.03;;;22.69;84.49
79362;BME280;68830;47.566;19.012;2023-09-19T01:14:50;99416.84;;;22.72;84.88
79362;BME280;68830;47.566;19.012;2023-09-19T01:18:00;99407.59;;;22.68;85.15
79362;BME280;68830;47.566;19.012;2023-09-19T01:21:08;99410.38;;;22.73;85.46
79362;BME280;68830;47.566;19.012;2023-09-19T01:24:45;99412.84;;;22.75;85.73
79362;BME280;68830;47.566;19.012;2023-09-19T01:28:20;99407.13;;;22.71;86.08
79362;BME280;68830;47.566;19.012;2023-09-19T01:31:34;99414.63;;;22.69;86.49
79362;BME280;68830;47.566;19.012;2023-09-19T01:34:46;99410.41;;;22.61;85.73
79362;BME280;68830;47.566;19.012;2023-09-19T01:37:51;99414.59;;;22.52;86.63
79362;BME280;68830;47.566;19.012;2023-09-19T01:41:03;99404.25;;;22.49;86.61
79362;BME280;68830;47.566;19.012;2023-09-19T01:44:13;99411.66;;;22.42;87.45
79362;BME280;68830;47.566;19.012;2023-09-19T01:47:27;99401.13;;;22.29;88.22
79362;BME280;68830;47.566;19.012;2023-09-19T01:50:32;99407.50;;;22.23;89.38
79362;BME280;68830;47.566;19.012;2023-09-19T01:53:41;99402.09;;;22.23;88.85
79362;BME280;68830;47.566;19.012;2023-09-19T01:56:49;99394.25;;;22.21;90.05
79362;BME280;68830;47.566;19.012;2023-09-19T01:59:59;99398.19;;;22.30;89.63
79362;BME280;68830;47.566;19.012;2023-09-19T02:03:04;99393.03;;;22.29;90.37
79362;BME280;68830;47.566;19.012;2023-09-19T02:06:07;99406.06;;;22.32;90.54
79362;BME280;68830;47.566;19.012;2023-09-19T02:09:14;99404.75;;;22.34;90.01
79362;BME280;68830;47.566;19.012;2023-09-19T02:12:16;99404.50;;;22.36;89.75
79362;BME280;68830;47.566;19.012;2023-09-19T02:15:19;99400.16;;;22.35;89.87
79362;BME280;68830;47.566;19.012;2023-09-19T02:18:22;99405.97;;;22.27;90.63
79362;BME280;68830;47.566;19.012;2023-09-19T02:21:24;99404.66;;;22.29;90.68
79362;BME280;68830;47.566;19.012;2023-09-19T02:24:27;99408.50;;;22.33;90.74
79362;BME280;68830;47.566;19.012;2023-09-19T02:27:29;99393.97;;;22.34;90.37
79362;BME280;68830;47.566;19.012;2023-09-19T02:30:32;99404.16;;;22.32;90.60
79362;BME280;68830;47.566;19.012;2023-09-19T02:33:37;99406.78;;;22.27;91.04
79362;BME280;68830;47.566;19.012;2023-09-19T02:36:39;99406.78;;;22.27;91.17
79362;BME280;68830;47.566;19.012;2023-09-19T02:39:41;99396.22;;;22.26;91.55
79362;BME280;68830;47.566;19.012;2023-09-19T02:42:43;99393.19;;;22.22;91.84
79362;BME280;68830;47.566;19.012;2023-09-19T02:45:49;99402.94;;;22.12;93.29
79362;BME280;68830;47.566;19.012;2023-09-19T02:48:54;99399.16;;;22.01;93.74
79362;BME280;68830;47.566;19.012;2023-09-19T02:51:56;99387.78;;;21.99;94.29
79362;BME280;68830;47.566;19.012;2023-09-19T02:55:00;99377.72;;;21.94;94.64
79362;BME280;68830;47.566;19.012;2023-09-19T02:58:03;99385.00;;;21.94;94.93
79362;BME280;68830;47.566;19.012;2023-09-19T03:01:10;99388.28;;;21.84;95.87
79362;BME280;68830;47.566;19.012;2023-09-19T03:04:15;99388.16;;;21.79;96.29
79362;BME280;68830;47.566;19.012;2023-09-19T03:07:21;99390.03;;;21.78;97.23
79362;BME280;68830;47.566;19.012;2023-09-19T03:10:24;99380.19;;;21.84;96.93
79362;BME280;68830;47.566;19.012;2023-09-19T03:13:26;99393.91;;;21.83;97.13
79362;BME280;68830;47.566;19.012;2023-09-19T03:16:28;99385.25;;;21.81;97.67
79362;BME280;68830;47.566;19.012;2023-09-19T03:19:33;99374.69;;;21.79;98.05
79362;BME280;68830;47.566;19.012;2023-09-19T03:22:35;99381.38;;;21.76;97.70
79362;BME280;68830;47.566;19.012;2023-09-19T03:25:37;99389.34;;;21.71;98.13
79362;BME280;68830;47.566;19.012;2023-09-19T03:28:39;99390.38;;;21.70;98.64
79362;BME280;68830;47.566;19.012;2023-09-19T03:31:41;99391.69;;;21.68;98.52
79362;BME280;68830;47.566;19.012;2023-09-19T03:34:45;99392.50;;;21.68;98.62
79362;BME280;68830;47.566;19.012;2023-09-19T03:37:50;99383.59;;;21.68;98.62
79362;BME280;68830;47.566;19.012;2023-09-19T03:40:54;99389.34;;;21.71;98.29
79362;BME280;68830;47.566;19.012;2023-09-19T03:43:56;99389.47;;;21.65;98.78
79362;BME280;68830;47.566;19.012;2023-09-19T03:46:58;99391.44;;;21.58;99.41
79362;BME280;68830;47.566;19.012;2023-09-19T03:50:01;99397.06;;;21.56;99.27
79362;BME280;68830;47.566;19.012;2023-09-19T03:53:04;99388.28;;;21.49;99.44
79362;BME280;68830;47.566;19.012;2023-09-19T03:56:08;99390.97;;;21.37;100.00
79362;BME280;68830;47.566;19.012;2023-09-19T03:59:10;99398.34;;;21.30;100.00
79362;BME280;68830;47.566;19.012;2023-09-19T04:02:12;99404.97;;;21.28;100.00
79362;BME280;68830;47.566;19.012;2023-09-19T04:05:25;99412.47;;;21.26;100.00
79362;BME280;68830;47.566;19.012;2023-09-19T04:08:28;99423.84;;;21.28;100.00
79362;BME280;68830;47.566;19.012;2023-09-19T04:11:31;99423.41;;;21.31;100.00
79362;BME280;68830;47.566;19.012;2023-09-19T04:14:33;99421.00;;;21.23;100.00
79362;BME280;68830;47.566;19.012;2023-09-19T04:17:35;99417.22;;;21.12;100.00
79362;BME280;68830;47.566;19.012;2023-09-19T04:20:40;99414.28;;;21.13;100.00
79362;BME280;68830;47.566;19.012;2023-09-19T04:23:42;99417.38;;;21.17;100.00
79362;BME280;68830;47.566;19.012;2023-09-19T04:26:45;99421.34;;;21.14;99.76
79362;BME280;68830;47.566;19.012;2023-09-19T04:29:47;99423.75;;;21.34;97.73
79362;BME280;68830;47.566;19.012;2023-09-19T04:32:49;99424.47;;;21.53;94.60
79362;BME280;68830;47.566;19.012;2023-09-19T04:35:55;99429.31;;;21.63;93.95
79362;BME280;68830;47.566;19.012;2023-09-19T04:39:03;99432.00;;;21.63;92.95
79362;BME280;68830;47.566;19.012;2023-09-19T04:42:09;99439.50;;;21.61;92.95
79362;BME280;68830;47.566;19.012;2023-09-19T04:45:13;99444.50;;;21.57;92.28
79362;BME280;68830;47.566;19.012;2023-09-19T04:48:16;99454.13;;;21.53;92.60
79362;BME280;68830;47.566;19.012;2023-09-19T04:51:19;99455.06;;;21.47;93.04
79362;BME280;68830;47.566;19.012;2023-09-19T04:54:22;99459.03;;;21.44;93.53
79362;BME280;68830;47.566;19.012;2023-09-19T04:57:25;99462.88;;;21.37;94.46
79362;BME280;68830;47.566;19.012;2023-09-19T05:00:27;99459.25;;;21.31;94.78
79362;BME280;68830;47.566;19.012;2023-09-19T05:03:33;99464.09;;;21.23;95.52
79362;BME280;68830;47.566;19.012;2023-09-19T05:06:36;99451.97;;;21.13;97.03
79362;BME280;68830;47.566;19.012;2023-09-19T05:09:39;99465.44;;;21.02;97.95
79362;BME280;68830;47.566;19.012;2023-09-19T05:12:41;99469.03;;;20.96;98.49
79362;BME280;68830;47.566;19.012;2023-09-19T05:15:43;99475.91;;;20.92;99.27
79362;BME280;68830;47.566;19.012;2023-09-19T05:18:46;99477.88;;;20.84;99.43
79362;BME280;68830;47.566;19.012;2023-09-19T05:21:49;99492.22;;;20.78;100.00
79362;BME280;68830;47.566;19.012;2023-09-19T05:24:52;99493.59;;;20.69;100.00
79362;BME280;68830;47.566;19.012;2023-09-19T05:27:55;99503.25;;;20.58;100.00
79362;BME280;68830;47.566;19.012;2023-09-19T05:30:57;99500.84;;;20.50;100.00
79362;BME280;68830;47.566;19.012;2023-09-19T05:34:01;99500.69;;;20.45;100.00
79362;BME280;68830;47.566;19.012;2023-09-19T05:37:04;99508.19;;;20.37;100.00
79362;BME280;68830;47.566;19.012;2023-09-19T05:40:10;99511.09;;;20.35;100.00
79362;BME280;68830;47.566;19.012;2023-09-19T05:43:13;99512.00;;;20.29;100.00
79362;BME280;68830;47.566;19.012;2023-09-19T05:46:18;99504.84;;;20.23;100.00
79362;BME280;68830;47.566;19.012;2023-09-19T05:49:21;99493.69;;;20.19;100.00
79362;BME280;68830;47.566;19.012;2023-09-19T05:52:24;99505.72;;;20.17;100.00
79362;BME280;68830;47.566;19.012;2023-09-19T05:55:27;99506.97;;;20.14;100.00
79362;BME280;68830;47.566;19.012;2023-09-19T05:58:30;99500.63;;;20.09;100.00
79362;BME280;68830;47.566;19.012;2023-09-19T06:01:32;99507.25;;;20.06;100.00
79362;BME280;68830;47.566;19.012;2023-09-19T06:04:37;99455.97;;;19.01;100.00
79362;BME280;68830;47.566;19.012;2023-09-19T06:07:44;99459.00;;;18.73;100.00
79362;BME280;68830;47.566;19.012;2023-09-19T06:10:46;99451.78;;;18.67;100.00
79362;BME280;68830;47.566;19.012;2023-09-19T06:13:48;99442.28;;;18.71;100.00
79362;BME280;68830;47.566;19.012;2023-09-19T06:16:51;99446.41;;;18.67;100.00
79362;BME280;68830;47.566;19.012;2023-09-19T06:19:56;99441.28;;;18.59;100.00
79362;BME280;68830;47.566;19.012;2023-09-19T06:22:59;99455.16;;;18.36;100.00
79362;BME280;68830;47.566;19.012;2023-09-19T06:26:03;99464.91;;;18.24;100.00
79362;BME280;68830;47.566;19.012;2023-09-19T06:29:08;99478.72;;;18.21;100.00
79362;BME280;68830;47.566;19.012;2023-09-19T06:32:10;99534.41;;;18.26;100.00
79362;BME280;68830;47.566;19.012;2023-09-19T06:35:14;99541.16;;;18.41;100.00
79362;BME280;68830;47.566;19.012;2023-09-19T06:38:17;99537.22;;;18.50;100.00
79362;BME280;68830;47.566;19.012;2023-09-19T06:41:21;99541.75;;;18.50;100.00
79362;BME280;68830;47.566;19.012;2023-09-19T06:44:26;99547.94;;;18.50;100.00
79362;BME280;68830;47.566;19.012;2023-09-19T06:47:29;99548.75;;;18.51;100.00
79362;BME280;68830;47.566;19.012;2023-09-19T06:50:32;99554.13;;;18.51;100.00
79362;BME280;68830;47.566;19.012;2023-09-19T06:53:36;99566.31;;;18.54;100.00
79362;BME280;68830;47.566;19.012;2023-09-19T06:56:38;99561.34;;;18.50;100.00
79362;BME280;68830;47.566;19.012;2023-09-19T06:59:39;99554.34;;;18.56;100.00
79362;BME280;68830;47.566;19.012;2023-09-19T07:02:41;99535.00;;;18.14;100.00
79362;BME280;68830;47.566;19.012;2023-09-19T07:05:47;99547.19;;;17.77;100.00
79362;BME280;68830;47.566;19.012;2023-09-19T07:08:50;99546.72;;;17.67;100.00
79362;BME280;68830;47.566;19.012;2023-09-19T07:11:53;99546.91;;;17.59;100.00
79362;BME280;68830;47.566;19.012;2023-09-19T07:14:55;99560.09;;;17.54;100.00
79362;BME280;68830;47.566;19.012;2023-09-19T07:17:57;99558.84;;;17.56;100.00
79362;BME280;68830;47.566;19.012;2023-09-19T07:21:00;99555.75;;;17.59;100.00
79362;BME280;68830;47.566;19.012;2023-09-19T07:24:08;99559.47;;;17.52;100.00
79362;BME280;68830;47.566;19.012;2023-09-19T07:27:10;99558.25;;;17.54;100.00
79362;BME280;68830;47.566;19.012;2023-09-19T07:30:13;99560.91;;;17.54;100.00
79362;BME280;68830;47.566;19.012;2023-09-19T07:33:16;99552.47;;;17.51;100.00
79362;BME280;68830;47.566;19.012;2023-09-19T07:36:18;99578.66;;;17.62;100.00
79362;BME280;68830;47.566;19.012;2023-09-19T07:39:23;99581.31;;;17.55;100.00
79362;BME280;68830;47.566;19.012;2023-09-19T07:42:25;99583.56;;;17.52;100.00
79362;BME280;68830;47.566;19.012;2023-09-19T07:45:28;99580.25;;;17.43;100.00
79362;BME280;68830;47.566;19.012;2023-09-19T07:48:35;99588.72;;;17.47;100.00
79362;BME280;68830;47.566;19.012;2023-09-19T07:51:40;99597.38;;;17.55;100.00
79362;BME280;68830;47.566;19.012;2023-09-19T07:54:45;99607.66;;;17.58;100.00
79362;BME280;68830;47.566;19.012;2023-09-19T07:57:47;99609.56;;;17.65;100.00
79362;BME280;68830;47.566;19.012;2023-09-19T08:00:49;99606.28;;;17.69;100.00
79362;BME280;68830;47.566;19.012;2023-09-19T08:03:51;99604.66;;;17.68;100.00
79362;BME280;68830;47.566;19.012;2023-09-19T08:06:54;99615.16;;;17.70;100.00
79362;BME280;68830;47.566;19.012;2023-09-19T08:09:59;99610.63;;;17.70;100.00
79362;BME280;68830;47.566;19.012;2023-09-19T08:13:01;99623.19;;;17.76;100.00
79362;BME280;68830;47.566;19.012;2023-09-19T08:16:05;99631.06;;;17.78;100.00
79362;BME280;68830;47.566;19.012;2023-09-19T08:19:07;99631.88;;;17.78;100.00
79362;BME280;68830;47.566;19.012;2023-09-19T08:22:10;99633.06;;;17.76;100.00
79362;BME280;68830;47.566;19.012;2023-09-19T08:25:14;99637.56;;;17.62;100.00
79362;BME280;68830;47.566;19.012;2023-09-19T08:28:19;99644.38;;;17.65;100.00
79362;BME280;68830;47.566;19.012;2023-09-19T08:31:26;99631.22;;;17.70;100.00
79362;BME280;68830;47.566;19.012;2023-09-19T08:34:29;99648.13;;;17.70;100.00
79362;BME280;68830;47.566;19.012;2023-09-19T08:37:34;99655.97;;;17.78;100.00
79362;BME280;68830;47.566;19.012;2023-09-19T08:40:38;99664.22;;;17.77;100.00
79362;BME280;68830;47.566;19.012;2023-09-19T08:43:44;99676.22;;;17.94;100.00
79362;BME280;68830;47.566;19.012;2023-09-19T08:46:49;99677.00;;;17.81;100.00
79362;BME280;68830;47.566;19.012;2023-09-19T08:50:01;99692.25;;;17.87;100.00
79362;BME280;68830;47.566;19.012;2023-09-19T08:53:10;99710.78;;;17.82;100.00
79362;BME280;68830;47.566;19.012;2023-09-19T08:56:17;99701.75;;;17.90;100.00
79362;BME280;68830;47.566;19.012;2023-09-19T08:59:21;99710.63;;;18.04;100.00
79362;BME280;68830;47.566;19.012;2023-09-19T09:02:26;99723.41;;;18.02;100.00
79362;BME280;68830;47.566;19.012;2023-09-19T09:05:30;99713.75;;;18.07;100.00
79362;BME280;68830;47.566;19.012;2023-09-19T09:08:34;99713.56;;;18.15;100.00
79362;BME280;68830;47.566;19.012;2023-09-19T09:11:38;99696.66;;;18.15;100.00
79362;BME280;68830;47.566;19.012;2023-09-19T09:14:44;99691.28;;;18.21;100.00
79362;BME280;68830;47.566;19.012;2023-09-19T09:17:46;99712.53;;;18.16;100.00
79362;BME280;68830;47.566;19.012;2023-09-19T09:20:50;99701.19;;;18.14;100.00
79362;BME280;68830;47.566;19.012;2023-09-19T09:23:52;99693.53;;;18.05;100.00
79362;BME280;68830;47.566;19.012;2023-09-19T09:26:57;99696.66;;;18.08;100.00
79362;BME280;68830;47.566;19.012;2023-09-19T09:29:59;99705.09;;;18.12;100.00
79362;BME280;68830;47.566;19.012;2023-09-19T09:33:08;99689.63;;;18.14;100.00
79362;BME280;68830;47.566;19.012;2023-09-19T09:36:14;99673.34;;;18.09;100.00
79362;BME280;68830;47.566;19.012;2023-09-19T09:39:30;99675.22;;;18.15;100.00
79362;BME280;68830;47.566;19.012;2023-09-19T09:42:36;99685.28;;;18.06;100.00
79362;BME280;68830;47.566;19.012;2023-09-19T09:45:40;99685.53;;;18.11;100.00
79362;BME280;68830;47.566;19.012;2023-09-19T09:48:56;99682.84;;;18.11;100.00
79362;BME280;68830;47.566;19.012;2023-09-19T09:52:17;99684.91;;;18.09;100.00
79362;BME280;68830;47.566;19.012;2023-09-19T09:55:20;99691.69;;;18.12;100.00
79362;BME280;68830;47.566;19.012;2023-09-19T09:58:23;99695.41;;;18.17;100.00
79362;BME280;68830;47.566;19.012;2023-09-19T10:01:46;99685.53;;;18.11;100.00
79362;BME280;68830;47.566;19.012;2023-09-19T10:04:48;99689.25;;;18.24;100.00
79362;BME280;68830;47.566;19.012;2023-09-19T10:07:55;99688.00;;;18.26;100.00
79362;BME280;68830;47.566;19.012;2023-09-19T10:11:15;99687.19;;;18.59;100.00
79362;BME280;68830;47.566;19.012;2023-09-19T10:14:20;99693.81;;;18.56;100.00
79362;BME280;68830;47.566;19.012;2023-09-19T10:17:25;99685.75;;;18.76;100.00
79362;BME280;68830;47.566;19.012;2023-09-19T10:20:30;99693.81;;;18.76;100.00
79362;BME280;68830;47.566;19.012;2023-09-19T10:23:34;99692.31;;;19.06;100.00
79362;BME280;68830;47.566;19.012;2023-09-19T10:26:38;99693.50;;;19.30;100.00
79362;BME280;68830;47.566;19.012;2023-09-19T10:29:44;99709.53;;;19.63;100.00
79362;BME280;68830;47.566;19.012;2023-09-19T10:32:56;99703.34;;;19.56;100.00
79362;BME280;68830;47.566;19.012;2023-09-19T10:36:00;99714.91;;;19.63;100.00
79362;BME280;68830;47.566;19.012;2023-09-19T10:39:03;99711.91;;;19.85;100.00
79362;BME280;68830;47.566;19.012;2023-09-19T10:42:14;99721.22;;;19.76;100.00
79362;BME280;68830;47.566;19.012;2023-09-19T10:45:20;99723.06;;;19.82;100.00
79362;BME280;68830;47.566;19.012;2023-09-19T10:48:24;99733.06;;;19.68;100.00
79362;BME280;68830;47.566;19.012;2023-09-19T10:51:31;99726.88;;;19.67;100.00
79362;BME280;68830;47.566;19.012;2023-09-19T10:54:41;99715.69;;;19.70;100.00
79362;BME280;68830;47.566;19.012;2023-09-19T10:57:47;99720.00;;;19.78;100.00
79362;BME280;68830;47.566;19.012;2023-09-19T11:00:53;99723.69;;;19.84;100.00
79362;BME280;68830;47.566;19.012;2023-09-19T11:07:13;99740.25;;;19.81;100.00
79362;BME280;68830;47.566;19.012;2023-09-19T11:10:44;99751.16;;;19.92;100.00
79362;BME280;68830;47.566;19.012;2023-09-19T11:14:28;99744.31;;;19.90;100.00
79362;BME280;68830;47.566;19.012;2023-09-19T11:17:35;99755.28;;;19.88;100.00
79362;BME280;68830;47.566;19.012;2023-09-19T11:20:39;99745.53;;;20.32;100.00
79362;BME280;68830;47.566;19.012;2023-09-19T11:27:26;99740.44;;;21.24;100.00
79362;BME280;68830;47.566;19.012;2023-09-19T11:30:29;99725.44;;;21.71;100.00
79362;BME280;68830;47.566;19.012;2023-09-19T11:33:34;99727.59;;;21.81;98.45
79362;BME280;68830;47.566;19.012;2023-09-19T11:36:38;99733.38;;;22.14;97.51
79362;BME280;68830;47.566;19.012;2023-09-19T11:40:07;99740.94;;;22.24;98.70
79362;BME280;68830;47.566;19.012;2023-09-19T11:43:29;99734.16;;;22.33;94.79
79362;BME280;68830;47.566;19.012;2023-09-19T11:46:33;99734.06;;;22.40;93.51
79362;BME280;68830;47.566;19.012;2023-09-19T11:49:40;99727.84;;;22.51;94.16
79362;BME280;68830;47.566;19.012;2023-09-19T11:52:42;99713.41;;;22.45;92.25
79362;BME280;68830;47.566;19.012;2023-09-19T11:55:47;99714.72;;;22.54;93.74
79362;BME280;68830;47.566;19.012;2023-09-19T11:58:49;99703.94;;;22.66;92.53
79362;BME280;68830;47.566;19.012;2023-09-19T12:01:57;99706.78;;;22.71;91.89
79362;BME280;68830;47.566;19.012;2023-09-19T12:05:01;99707.81;;;22.58;92.04
79362;BME280;68830;47.566;19.012;2023-09-19T12:08:04;99702.44;;;22.70;93.03
79362;BME280;68830;47.566;19.012;2023-09-19T12:11:14;99714.16;;;22.76;93.44
79362;BME280;68830;47.566;19.012;2023-09-19T12:14:22;99722.44;;;22.39;95.02
79362;BME280;68830;47.566;19.012;2023-09-19T12:17:24;99720.00;;;22.61;92.81
79362;BME280;68830;47.566;19.012;2023-09-19T12:20:45;99722.09;;;22.47;95.54
79362;BME280;68830;47.566;19.012;2023-09-19T12:24:04;99720.25;;;22.18;93.46
79362;BME280;68830;47.566;19.012;2023-09-19T12:27:07;99721.63;;;21.78;95.08
79362;BME280;68830;47.566;19.012;2023-09-19T12:30:11;99722.38;;;22.16;97.60
79362;BME280;68830;47.566;19.012;2023-09-19T12:33:28;99726.72;;;22.70;92.33
79362;BME280;68830;47.566;19.012;2023-09-19T12:36:32;99729.31;;;22.77;90.13
79362;BME280;68830;47.566;19.012;2023-09-19T12:39:36;99742.34;;;22.68;90.41
79362;BME280;68830;47.566;19.012;2023-09-19T12:42:38;99740.50;;;22.92;89.42
79362;BME280;68830;47.566;19.012;2023-09-19T12:45:42;99738.97;;;22.96;93.85
79362;BME280;68830;47.566;19.012;2023-09-19T12:48:44;99741.75;;;22.78;89.30
79362;BME280;68830;47.566;19.012;2023-09-19T12:51:54;99743.44;;;22.90;89.48
79362;BME280;68830;47.566;19.012;2023-09-19T12:54:56;99740.78;;;22.60;90.30
79362;BME280;68830;47.566;19.012;2023-09-19T12:58:07;99739.56;;;23.10;88.99
79362;BME280;68830;47.566;19.012;2023-09-19T13:01:14;99747.78;;;22.50;90.85
79362;BME280;68830;47.566;19.012;2023-09-19T13:04:17;99742.22;;;22.21;94.47
79362;BME280;68830;47.566;19.012;2023-09-19T13:07:41;99753.69;;;21.98;96.67
79362;BME280;68830;47.566;19.012;2023-09-19T13:11:09;99747.03;;;22.31;96.12
79362;BME280;68830;47.566;19.012;2023-09-19T13:14:17;99759.00;;;22.35;91.38
79362;BME280;68830;47.566;19.012;2023-09-19T13:17:20;99749.13;;;22.59;91.39
79362;BME280;68830;47.566;19.012;2023-09-19T13:20:25;99743.69;;;23.01;86.53
79362;BME280;68830;47.566;19.012;2023-09-19T13:23:32;99738.84;;;23.26;88.89
79362;BME280;68830;47.566;19.012;2023-09-19T13:26:35;99748.84;;;23.14;87.35
79362;BME280;68830;47.566;19.012;2023-09-19T13:29:37;99757.06;;;23.19;85.80
79362;BME280;68830;47.566;19.012;2023-09-19T13:32:38;99747.06;;;23.31;87.99
79362;BME280;68830;47.566;19.012;2023-09-19T13:35:42;99741.53;;;23.26;82.70
79362;BME280;68830;47.566;19.012;2023-09-19T13:38:46;99750.59;;;23.08;83.58
79362;BME280;68830;47.566;19.012;2023-09-19T13:41:50;99752.13;;;23.04;83.03
79362;BME280;68830;47.566;19.012;2023-09-19T13:44:52;99749.66;;;23.03;84.82
79362;BME280;68830;47.566;19.012;2023-09-19T13:47:55;99754.72;;;23.22;83.31
79362;BME280;68830;47.566;19.012;2023-09-19T13:50:58;99763.97;;;23.38;83.15
79362;BME280;68830;47.566;19.012;2023-09-19T13:54:01;99767.38;;;23.57;81.91
79362;BME280;68830;47.566;19.012;2023-09-19T13:57:04;99767.50;;;23.62;85.19
79362;BME280;68830;47.566;19.012;2023-09-19T14:00:09;99771.84;;;23.40;80.58
79362;BME280;68830;47.566;19.012;2023-09-19T14:03:13;99776.69;;;23.14;84.83
79362;BME280;68830;47.566;19.012;2023-09-19T14:06:17;99772.66;;;22.93;83.57
79362;BME280;68830;47.566;19.012;2023-09-19T14:09:21;99776.44;;;23.27;84.12
79362;BME280;68830;47.566;19.012;2023-09-19T14:12:23;99777.59;;;22.96;84.72
79362;BME280;68830;47.566;19.012;2023-09-19T14:15:26;99775.97;;;23.07;84.79
79362;BME280;68830;47.566;19.012;2023-09-19T14:18:31;99770.56;;;23.07;86.78
79362;BME280;68830;47.566;19.012;2023-09-19T14:21:34;99774.56;;;23.05;87.10
79362;BME280;68830;47.566;19.012;2023-09-19T14:24:39;99771.03;;;23.04;87.96
79362;BME280;68830;47.566;19.012;2023-09-19T14:27:43;99765.16;;;23.19;88.34
79362;BME280;68830;47.566;19.012;2023-09-19T14:30:44;99767.88;;;23.19;85.47
79362;BME280;68830;47.566;19.012;2023-09-19T14:33:53;99773.38;;;23.36;84.12
79362;BME280;68830;47.566;19.012;2023-09-19T14:36:56;99756.47;;;23.29;83.27
79362;BME280;68830;47.566;19.012;2023-09-19T14:39:59;99751.66;;;23.19;84.74
79362;BME280;68830;47.566;19.012;2023-09-19T14:43:03;99753.66;;;22.88;87.79
79362;BME280;68830;47.566;19.012;2023-09-19T14:46:06;99753.72;;;22.82;85.28
79362;BME280;68830;47.566;19.012;2023-09-19T14:49:11;99757.41;;;22.87;84.67
79362;BME280;68830;47.566;19.012;2023-09-19T14:52:13;99752.31;;;22.67;84.97
79362;BME280;68830;47.566;19.012;2023-09-19T14:55:19;99759.91;;;22.59;84.22
79362;BME280;68830;47.566;19.012;2023-09-19T14:58:23;99772.38;;;22.30;84.09
79362;BME280;68830;47.566;19.012;2023-09-19T15:01:28;99771.03;;;22.39;84.05
79362;BME280;68830;47.566;19.012;2023-09-19T15:04:30;99767.50;;;22.39;82.41
79362;BME280;68830;47.566;19.012;2023-09-19T15:07:34;99761.94;;;22.33;83.82
79362;BME280;68830;47.566;19.012;2023-09-19T15:10:39;99763.50;;;22.41;82.04
79362;BME280;68830;47.566;19.012;2023-09-19T15:13:44;99771.31;;;22.31;83.76
79362;BME280;68830;47.566;19.012;2023-09-19T15:16:48;99774.31;;;22.11;84.79
79362;BME280;68830;47.566;19.012;2023-09-19T15:19:50;99778.06;;;22.10;83.63
79362;BME280;68830;47.566;19.012;2023-09-19T15:22:53;99783.50;;;22.03;83.84
79362;BME280;68830;47.566;19.012;2023-09-19T15:25:58;99776.91;;;21.99;85.22
79362;BME280;68830;47.566;19.012;2023-09-19T15:29:01;99784.31;;;22.04;84.51
79362;BME280;68830;47.566;19.012;2023-09-19T15:32:04;99781.03;;;22.02;86.66
79362;BME280;68830;47.566;19.012;2023-09-19T15:35:08;99784.94;;;22.24;83.66
79362;BME280;68830;47.566;19.012;2023-09-19T15:38:15;99788.84;;;22.10;85.94
79362;BME280;68830;47.566;19.012;2023-09-19T15:41:19;99786.38;;;21.90;86.02
79362;BME280;68830;47.566;19.012;2023-09-19T15:44:23;99802.53;;;21.72;89.56
79362;BME280;68830;47.566;19.012;2023-09-19T15:47:28;99803.22;;;21.67;87.82
79362;BME280;68830;47.566;19.012;2023-09-19T15:50:32;99801.22;;;21.63;87.48
79362;BME280;68830;47.566;19.012;2023-09-19T15:53:41;99811.22;;;21.37;89.57
79362;BME280;68830;47.566;19.012;2023-09-19T15:56:47;99813.22;;;21.42;88.81
79362;BME280;68830;47.566;19.012;2023-09-19T15:59:51;99806.97;;;21.23;90.21
79362;BME280;68830;47.566;19.012;2023-09-19T16:02:53;99823.06;;;21.05;93.27
79362;BME280;68830;47.566;19.012;2023-09-19T16:05:57;99825.72;;;20.86;96.67
79362;BME280;68830;47.566;19.012;2023-09-19T16:09:00;99823.72;;;20.75;99.79